Time;durP1;ratioP1;P1;durP2;ratioP2;P2;SDS_P1;SDS_P2;PMS_P1;PMS_P2;Temp;Humidity;BMP_temperature;BMP_pressure;BME280_temperature;BME280_humidity;BME280_pressure;Samples;Min_cycle;Max_cycle;Signal;HPM_P1;HPM_P2
2022/03/18 00:01:53;;;;;;;61.92;45.55;;;;;;;;;;5044138;28;20197;-69
2022/03/18 00:04:19;;;;;;;64.63;44.45;;;;;;;;;;5044061;28;20201;-69
2022/03/18 00:06:45;;;;;;;60.10;44.72;;;;;;;;;;5043683;28;20213;-69
2022/03/18 00:09:13;;;;;;;60.47;43.33;;;;;;;;;;5043743;28;20206;-69
2022/03/18 00:11:39;;;;;;;60.35;43.88;;;;;;;;;;5043966;28;20213;-69
2022/03/18 00:14:05;;;;;;;58.55;43.58;;;;;;;;;;5043860;28;20236;-69
2022/03/18 00:16:32;;;;;;;57.95;42.63;;;;;;;;;;5043591;28;20252;-69
2022/03/18 00:19:00;;;;;;;57.00;42.33;;;;;;;;;;5043801;28;20198;-69
2022/03/18 00:21:27;;;;;;;56.08;42.17;;;;;;;;;;5043649;28;20559;-69
2022/03/18 00:23:53;;;;;;;58.53;42.50;;;;;;;;;;5043459;28;20205;-69
2022/03/18 00:26:21;;;;;;;56.08;40.45;;;;;;;;;;5042938;28;20194;-69
2022/03/18 00:28:47;;;;;;;52.15;39.40;;;;;;;;;;5043663;28;20390;-69
2022/03/18 00:31:13;;;;;;;48.70;37.60;;;;;;;;;;5043607;28;20236;-69
2022/03/18 00:33:40;;;;;;;52.20;39.20;;;;;;;;;;5043411;28;20197;-69
2022/03/18 00:36:06;;;;;;;52.75;38.47;;;;;;;;;;5043127;28;20563;-69
2022/03/18 00:38:33;;;;;;;49.20;36.65;;;;;;;;;;5043209;28;20198;-69
2022/03/18 00:41:00;;;;;;;46.08;35.10;;;;;;;;;;5043676;28;20229;-69
2022/03/18 00:43:27;;;;;;;48.15;35.67;;;;;;;;;;5043325;28;20201;-69
2022/03/18 00:45:53;;;;;;;47.28;35.00;;;;;;;;;;5043287;28;20197;-69
2022/03/18 00:53:55;;;;;;;42.60;32.88;;;;;;;;;;5042983;28;20224;-69
2022/03/18 00:56:22;;;;;;;44.40;33.30;;;;;;;;;;5042709;28;20213;-69
2022/03/18 00:58:49;;;;;;;40.10;31.17;;;;;;;;;;5043028;28;20236;-69
2022/03/18 01:01:16;;;;;;;39.95;29.17;;;;;;;;;;5042743;28;20204;-69
2022/03/18 01:03:42;;;;;;;39.45;30.17;;;;;;;;;;5042847;28;20236;-69
2022/03/18 01:06:08;;;;;;;38.70;28.65;;;;;;;;;;5042638;28;20229;-69
2022/03/18 01:08:34;;;;;;;36.60;27.92;;;;;;;;;;5042767;28;20263;-69
2022/03/18 01:11:02;;;;;;;34.83;27.50;;;;;;;;;;5042818;28;20408;-69
2022/03/18 01:13:28;;;;;;;37.63;28.70;;;;;;;;;;5042828;28;20197;-69
2022/03/18 01:15:55;;;;;;;37.75;28.00;;;;;;;;;;5042495;28;20244;-69
2022/03/18 01:18:22;;;;;;;34.97;27.00;;;;;;;;;;5042524;28;20222;-69
2022/03/18 01:20:48;;;;;;;35.88;27.67;;;;;;;;;;5042706;28;20197;-69
2022/03/18 01:23:14;;;;;;;35.13;27.65;;;;;;;;;;5042597;28;20197;-69
2022/03/18 01:25:40;;;;;;;34.47;26.02;;;;;;;;;;5042474;28;20414;-69
2022/03/18 01:28:07;;;;;;;31.88;25.98;;;;;;;;;;5042108;28;20200;-69
2022/03/18 01:30:33;;;;;;;33.05;26.60;;;;;;;;;;5042932;28;20198;-69
2022/03/18 01:33:01;;;;;;;32.90;26.58;;;;;;;;;;5042506;28;20198;-69
2022/03/18 01:35:27;;;;;;;32.78;25.42;;;;;;;;;;5042725;28;20198;-69
2022/03/18 01:37:54;;;;;;;32.30;24.67;;;;;;;;;;5041470;28;20259;-69
2022/03/18 01:40:20;;;;;;;33.92;26.02;;;;;;;;;;5042366;28;20198;-69
2022/03/18 01:42:46;;;;;;;35.40;25.45;;;;;;;;;;5042230;28;20204;-69
2022/03/18 01:45:13;;;;;;;30.75;24.73;;;;;;;;;;5042221;28;20221;-69
2022/03/18 01:47:42;;;;;;;32.10;24.92;;;;;;;;;;5042107;28;20524;-69
2022/03/18 01:50:10;;;;;;;32.88;24.92;;;;;;;;;;5042307;28;20198;-69
2022/03/18 01:52:37;;;;;;;28.15;23.40;;;;;;;;;;5042433;28;20197;-69
2022/03/18 01:55:03;;;;;;;30.67;25.23;;;;;;;;;;5042107;28;20236;-69
2022/03/18 01:57:30;;;;;;;29.83;24.75;;;;;;;;;;5041702;28;20218;-69
2022/03/18 01:59:57;;;;;;;31.08;25.00;;;;;;;;;;5041983;28;20221;-69
2022/03/18 02:02:23;;;;;;;31.58;24.73;;;;;;;;;;5042276;28;20224;-69
2022/03/18 02:04:49;;;;;;;30.50;24.98;;;;;;;;;;5042183;28;20505;-69
2022/03/18 02:07:17;;;;;;;32.25;24.58;;;;;;;;;;5041742;28;20274;-69
2022/03/18 02:09:44;;;;;;;28.80;23.63;;;;;;;;;;5041942;28;20201;-69
2022/03/18 02:12:11;;;;;;;28.00;23.75;;;;;;;;;;5042088;28;20205;-69
2022/03/18 02:14:38;;;;;;;28.75;23.92;;;;;;;;;;5041897;28;20241;-69
2022/03/18 02:17:05;;;;;;;31.45;23.73;;;;;;;;;;5041705;28;20218;-69
2022/03/18 02:19:31;;;;;;;30.48;24.33;;;;;;;;;;5041996;28;20365;-69
2022/03/18 02:21:58;;;;;;;29.50;24.13;;;;;;;;;;5042054;28;20197;-69
2022/03/18 02:24:26;;;;;;;27.08;22.90;;;;;;;;;;5041691;28;20206;-69
2022/03/18 02:26:53;;;;;;;29.80;23.95;;;;;;;;;;5041605;28;20194;-69
2022/03/18 02:29:20;;;;;;;31.33;23.27;;;;;;;;;;5042239;28;20202;-69
2022/03/18 02:31:46;;;;;;;31.25;22.70;;;;;;;;;;5041967;28;20201;-69
2022/03/18 02:34:13;;;;;;;28.55;22.33;;;;;;;;;;5041971;28;20506;-69
2022/03/18 02:36:39;;;;;;;28.92;23.58;;;;;;;;;;5041447;28;20236;-69
2022/03/18 02:39:05;;;;;;;29.95;23.13;;;;;;;;;;5040999;28;20220;-69
2022/03/18 02:41:33;;;;;;;28.65;22.60;;;;;;;;;;5041835;28;20198;-69
2022/03/18 02:44:00;;;;;;;28.73;22.55;;;;;;;;;;5041841;28;20423;-69
2022/03/18 02:46:26;;;;;;;30.30;23.77;;;;;;;;;;5041495;28;20244;-69
2022/03/18 02:48:53;;;;;;;29.48;23.13;;;;;;;;;;5044171;28;20240;-69
2022/03/18 02:51:20;;;;;;;28.20;22.15;;;;;;;;;;5045333;28;20268;-69
2022/03/18 02:53:46;;;;;;;29.65;22.98;;;;;;;;;;5045539;28;20205;-69
2022/03/18 02:56:12;;;;;;;29.27;22.52;;;;;;;;;;5045244;28;20197;-68
2022/03/18 02:58:40;;;;;;;28.38;22.80;;;;;;;;;;5045235;28;20222;-69
2022/03/18 03:01:07;;;;;;;27.20;21.80;;;;;;;;;;5045287;28;20197;-69
2022/03/18 03:03:33;;;;;;;28.52;23.45;;;;;;;;;;5045189;28;20197;-69
2022/03/18 03:08:43;;;;;;;36.72;23.98;;;;;;;;;;5045019;28;20378;-69
2022/03/18 03:11:09;;;;;;;30.48;22.77;;;;;;;;;;5045042;28;20198;-68
2022/03/18 03:13:37;;;;;;;30.48;23.63;;;;;;;;;;5045075;28;20414;-69
2022/03/18 03:16:05;;;;;;;28.40;23.15;;;;;;;;;;5044713;28;20198;-69
2022/03/18 03:18:32;;;;;;;29.45;23.27;;;;;;;;;;5044942;28;20552;-69
2022/03/18 03:20:58;;;;;;;31.23;23.33;;;;;;;;;;5045097;28;20443;-69
2022/03/18 03:23:25;;;;;;;30.98;23.67;;;;;;;;;;5044843;28;20197;-69
2022/03/18 03:25:52;;;;;;;32.03;23.40;;;;;;;;;;5044475;28;20431;-69
2022/03/18 03:28:18;;;;;;;30.55;23.92;;;;;;;;;;5044625;28;20201;-69
2022/03/18 03:30:44;;;;;;;32.97;23.48;;;;;;;;;;5044509;28;20202;-69
2022/03/18 03:33:12;;;;;;;32.20;23.45;;;;;;;;;;5044748;28;20449;-69
2022/03/18 03:35:39;;;;;;;32.72;23.92;;;;;;;;;;5044777;28;20511;-69
2022/03/18 03:38:06;;;;;;;30.10;23.40;;;;;;;;;;5044037;28;20257;-69
2022/03/18 03:40:32;;;;;;;31.17;24.13;;;;;;;;;;5044750;28;20221;-69
2022/03/18 03:42:59;;;;;;;31.85;23.77;;;;;;;;;;5044608;28;20198;-69
2022/03/18 03:45:25;;;;;;;34.63;24.83;;;;;;;;;;5044297;28;20201;-68
2022/03/18 03:47:52;;;;;;;30.30;23.92;;;;;;;;;;5044357;28;20421;-68
2022/03/18 03:50:19;;;;;;;33.90;23.85;;;;;;;;;;5044338;28;20201;-68
2022/03/18 03:52:46;;;;;;;31.55;23.65;;;;;;;;;;5044236;28;20425;-69
2022/03/18 03:55:13;;;;;;;29.45;23.45;;;;;;;;;;5044417;28;20202;-69
2022/03/18 03:57:39;;;;;;;33.33;24.17;;;;;;;;;;5043890;28;20560;-69
2022/03/18 04:00:07;;;;;;;31.05;24.23;;;;;;;;;;5043238;28;20211;-69
2022/03/18 04:02:33;;;;;;;31.58;24.58;;;;;;;;;;5044205;28;20505;-69
2022/03/18 04:04:59;;;;;;;31.83;23.85;;;;;;;;;;5044003;28;20218;-69
2022/03/18 04:07:27;;;;;;;31.50;23.77;;;;;;;;;;5043647;28;20201;-69
2022/03/18 04:09:54;;;;;;;31.92;23.48;;;;;;;;;;5043992;28;20205;-69
2022/03/18 04:12:20;;;;;;;29.95;24.08;;;;;;;;;;5043857;28;20197;-69
2022/03/18 04:14:47;;;;;;;32.30;24.25;;;;;;;;;;5044012;28;20209;-69
2022/03/18 04:17:13;;;;;;;33.20;23.95;;;;;;;;;;5043660;28;20197;-69
2022/03/18 04:19:39;;;;;;;29.10;24.17;;;;;;;;;;5043836;28;20197;-69
2022/03/18 04:22:06;;;;;;;31.45;23.20;;;;;;;;;;5043776;28;20420;-69
2022/03/18 04:24:34;;;;;;;32.53;24.30;;;;;;;;;;5043504;28;20661;-69
2022/03/18 04:27:00;;;;;;;37.33;24.65;;;;;;;;;;5043214;28;20240;-69
2022/03/18 04:29:27;;;;;;;31.63;23.30;;;;;;;;;;5043823;28;20206;-69
2022/03/18 04:31:53;;;;;;;31.00;23.58;;;;;;;;;;5043585;28;20222;-69
2022/03/18 04:34:19;;;;;;;31.80;24.08;;;;;;;;;;5043467;28;20430;-69
2022/03/18 04:36:46;;;;;;;33.58;25.23;;;;;;;;;;5043242;28;20425;-69
2022/03/18 04:39:12;;;;;;;36.67;25.17;;;;;;;;;;5043317;28;20221;-69
2022/03/18 04:41:39;;;;;;;35.53;24.70;;;;;;;;;;5043247;28;20202;-69
2022/03/18 04:44:06;;;;;;;31.45;24.70;;;;;;;;;;5043590;28;20201;-69
2022/03/18 04:46:32;;;;;;;34.97;25.92;;;;;;;;;;5042976;28;20198;-69
2022/03/18 04:48:59;;;;;;;32.70;24.30;;;;;;;;;;5043410;28;20205;-69
2022/03/18 04:51:25;;;;;;;35.35;25.10;;;;;;;;;;5043145;28;20218;-67
2022/03/18 04:53:51;;;;;;;34.70;24.58;;;;;;;;;;5043101;28;20197;-67
2022/03/18 04:59:03;;;;;;;35.35;25.00;;;;;;;;;;5042978;28;20260;-69
2022/03/18 05:01:29;;;;;;;34.35;25.70;;;;;;;;;;5042921;28;20197;-67
2022/03/18 05:03:56;;;;;;;33.83;24.60;;;;;;;;;;5042798;28;20252;-67
2022/03/18 05:06:22;;;;;;;31.92;24.55;;;;;;;;;;5042475;28;20460;-69
2022/03/18 05:08:48;;;;;;;32.28;24.48;;;;;;;;;;5042698;28;20450;-69
2022/03/18 05:11:15;;;;;;;36.08;25.60;;;;;;;;;;5042966;28;20244;-69
2022/03/18 05:13:42;;;;;;;33.53;24.90;;;;;;;;;;5042934;28;20198;-68
2022/03/18 05:16:09;;;;;;;36.72;25.40;;;;;;;;;;5042452;28;20229;-68
2022/03/18 05:18:36;;;;;;;33.22;24.27;;;;;;;;;;5042580;28;20446;-68
2022/03/18 05:21:03;;;;;;;34.33;24.70;;;;;;;;;;5042679;28;20236;-68
2022/03/18 05:23:29;;;;;;;34.47;26.13;;;;;;;;;;5042461;28;20587;-68
2022/03/18 05:25:56;;;;;;;34.80;24.25;;;;;;;;;;5042350;28;20201;-68
2022/03/18 05:28:22;;;;;;;32.17;24.67;;;;;;;;;;5042445;28;20201;-68
2022/03/18 05:30:48;;;;;;;37.15;26.02;;;;;;;;;;5042558;28;20449;-68
2022/03/18 05:33:16;;;;;;;35.85;25.30;;;;;;;;;;5042449;28;20252;-68
2022/03/18 05:35:42;;;;;;;31.27;24.48;;;;;;;;;;5042359;28;20198;-68
2022/03/18 05:38:08;;;;;;;32.92;25.02;;;;;;;;;;5042007;28;20222;-68
2022/03/18 05:40:34;;;;;;;34.60;24.67;;;;;;;;;;5042234;28;20198;-68
2022/03/18 05:43:00;;;;;;;38.80;26.23;;;;;;;;;;5042456;28;20202;-68
2022/03/18 05:45:27;;;;;;;39.33;24.52;;;;;;;;;;5042279;28;20252;-68
2022/03/18 05:47:53;;;;;;;32.65;24.67;;;;;;;;;;5043778;28;20197;-69
2022/03/18 05:50:22;;;;;;;37.00;25.05;;;;;;;;;;5042894;28;20244;-68
2022/03/18 05:52:48;;;;;;;33.83;25.20;;;;;;;;;;5042113;28;20221;-68
2022/03/18 05:55:15;;;;;;;33.25;24.70;;;;;;;;;;5042127;28;20201;-68
2022/03/18 05:57:40;;;;;;;35.95;24.92;;;;;;;;;;5042001;28;20251;-68
2022/03/18 06:00:07;;;;;;;33.45;24.02;;;;;;;;;;5042310;28;20198;-68
2022/03/18 06:02:33;;;;;;;34.38;25.75;;;;;;;;;;5042180;28;20201;-68
2022/03/18 06:04:59;;;;;;;35.95;25.48;;;;;;;;;;5041884;28;20228;-68
2022/03/18 06:07:27;;;;;;;37.05;26.42;;;;;;;;;;5042429;28;20197;-68
2022/03/18 06:12:37;;;;;;;34.28;25.15;;;;;;;;;;5042023;28;20193;-68
2022/03/18 06:15:04;;;;;;;37.28;26.27;;;;;;;;;;5042012;28;20198;-68
2022/03/18 06:17:30;;;;;;;37.13;25.30;;;;;;;;;;5041652;28;20251;-68
2022/03/18 06:19:56;;;;;;;35.95;25.60;;;;;;;;;;5042015;28;20209;-68
2022/03/18 06:22:22;;;;;;;36.47;26.45;;;;;;;;;;5042002;28;20202;-68
2022/03/18 06:24:50;;;;;;;36.13;25.45;;;;;;;;;;5045713;28;20201;-68
2022/03/18 06:27:16;;;;;;;34.53;25.42;;;;;;;;;;5045676;28;20504;-68
2022/03/18 06:29:43;;;;;;;40.03;26.83;;;;;;;;;;5045879;28;20240;-68
2022/03/18 06:32:09;;;;;;;36.47;25.55;;;;;;;;;;5045571;28;20206;-68
2022/03/18 06:34:36;;;;;;;43.90;29.35;;;;;;;;;;5045602;28;20201;-68
2022/03/18 06:37:02;;;;;;;37.42;27.38;;;;;;;;;;5045604;28;20248;-68
2022/03/18 06:39:29;;;;;;;37.97;26.65;;;;;;;;;;5045581;28;20264;-68
2022/03/18 06:41:56;;;;;;;35.50;25.75;;;;;;;;;;5045542;28;20471;-68
2022/03/18 06:44:23;;;;;;;38.65;27.60;;;;;;;;;;5045479;28;20204;-68
2022/03/18 06:46:49;;;;;;;38.08;27.40;;;;;;;;;;5045191;28;20206;-68
2022/03/18 06:49:15;;;;;;;34.30;26.33;;;;;;;;;;5045643;28;20194;-68
2022/03/18 06:51:42;;;;;;;40.35;28.38;;;;;;;;;;5045413;28;20259;-68
2022/03/18 06:54:08;;;;;;;39.67;27.58;;;;;;;;;;5045368;28;20202;-68
2022/03/18 06:56:38;;;;;;;41.45;28.48;;;;;;;;;;5044918;28;20244;-68
2022/03/18 06:59:05;;;;;;;39.45;28.60;;;;;;;;;;5045030;28;20224;-68
2022/03/18 07:01:32;;;;;;;40.53;29.70;;;;;;;;;;5045219;28;20245;-68
2022/03/18 07:03:58;;;;;;;40.22;28.67;;;;;;;;;;5045186;28;20198;-68
2022/03/18 07:06:24;;;;;;;41.58;29.75;;;;;;;;;;5044993;28;20256;-68
2022/03/18 07:08:50;;;;;;;39.60;28.88;;;;;;;;;;5045128;28;20283;-68
2022/03/18 07:11:16;;;;;;;42.03;28.98;;;;;;;;;;5044966;28;20421;-68
2022/03/18 07:13:45;;;;;;;43.92;30.60;;;;;;;;;;5045011;28;20505;-68
2022/03/18 07:18:56;;;;;;;44.17;30.10;;;;;;;;;;5044835;28;20239;-68
2022/03/18 07:21:23;;;;;;;43.00;30.35;;;;;;;;;;5044950;28;20243;-68
2022/03/18 07:23:49;;;;;;;43.30;30.00;;;;;;;;;;5044681;28;20221;-68
2022/03/18 07:26:15;;;;;;;42.55;29.52;;;;;;;;;;5044560;28;20251;-68
2022/03/18 07:28:41;;;;;;;44.03;29.98;;;;;;;;;;5044840;28;20194;-68
2022/03/18 07:31:08;;;;;;;40.05;30.33;;;;;;;;;;5044751;28;20236;-68
2022/03/18 07:33:35;;;;;;;46.30;32.65;;;;;;;;;;5044691;28;20198;-68
2022/03/18 07:36:01;;;;;;;43.00;30.65;;;;;;;;;;5043551;28;20423;-68
2022/03/18 07:38:28;;;;;;;46.65;31.63;;;;;;;;;;5044365;28;20432;-68
2022/03/18 07:40:54;;;;;;;48.67;32.08;;;;;;;;;;5044366;28;20243;-68
2022/03/18 07:43:20;;;;;;;47.03;33.28;;;;;;;;;;5044635;28;20221;-68
2022/03/18 07:45:46;;;;;;;47.25;32.67;;;;;;;;;;5044849;28;20447;-68
2022/03/18 07:48:13;;;;;;;45.22;33.05;;;;;;;;;;5044123;28;20202;-68
2022/03/18 07:50:40;;;;;;;46.15;33.00;;;;;;;;;;5044017;28;20198;-68
2022/03/18 07:53:07;;;;;;;46.95;32.72;;;;;;;;;;5043844;28;20220;-68
2022/03/18 07:55:35;;;;;;;46.60;32.70;;;;;;;;;;5044020;28;20213;-68
2022/03/18 07:58:01;;;;;;;48.75;34.35;;;;;;;;;;5043257;28;20205;-68
2022/03/18 08:00:27;;;;;;;48.72;34.10;;;;;;;;;;5042752;28;20244;-68
2022/03/18 08:02:54;;;;;;;51.05;33.75;;;;;;;;;;5043573;28;20228;-68
2022/03/18 08:05:21;;;;;;;47.17;32.75;;;;;;;;;;5043364;28;20218;-68
2022/03/18 08:07:48;;;;;;;48.47;32.63;;;;;;;;;;5043088;28;20252;-68
2022/03/18 08:10:17;;;;;;;50.97;33.33;;;;;;;;;;5043782;28;20200;-68
2022/03/18 08:12:44;;;;;;;47.78;33.65;;;;;;;;;;5043497;28;20268;-68
2022/03/18 08:15:11;;;;;;;47.72;33.20;;;;;;;;;;5043289;28;20198;-67
2022/03/18 08:17:38;;;;;;;48.33;34.22;;;;;;;;;;5043048;28;20198;-57
2022/03/18 08:20:05;;;;;;;48.08;32.88;;;;;;;;;;5043037;28;20541;-58
2022/03/18 08:22:31;;;;;;;47.30;33.88;;;;;;;;;;5043017;28;20205;-58
2022/03/18 08:24:59;;;;;;;46.53;32.90;;;;;;;;;;5043030;28;20400;-58
2022/03/18 08:27:25;;;;;;;45.92;32.80;;;;;;;;;;5043039;28;20470;-57
2022/03/18 08:29:54;;;;;;;47.97;33.00;;;;;;;;;;5043119;28;20194;-57
2022/03/18 08:32:20;;;;;;;50.92;35.40;;;;;;;;;;5042886;28;20204;-58
2022/03/18 08:34:46;;;;;;;47.40;33.38;;;;;;;;;;5043030;28;20380;-58
2022/03/18 08:37:12;;;;;;;49.20;33.15;;;;;;;;;;5042550;28;20222;-57
2022/03/18 08:39:40;;;;;;;46.92;33.03;;;;;;;;;;5042602;28;20236;-58
2022/03/18 08:42:09;;;;;;;49.53;34.70;;;;;;;;;;5042958;28;20206;-58
2022/03/18 08:44:35;;;;;;;46.15;33.22;;;;;;;;;;5042720;28;20484;-58
2022/03/18 08:47:01;;;;;;;49.72;34.85;;;;;;;;;;5042135;28;20202;-58
2022/03/18 08:49:28;;;;;;;50.55;34.05;;;;;;;;;;5043175;28;20194;-59
2022/03/18 08:51:55;;;;;;;51.08;34.97;;;;;;;;;;5042487;28;20206;-57
2022/03/18 08:54:21;;;;;;;48.08;32.95;;;;;;;;;;5043063;28;20424;-57
2022/03/18 08:56:48;;;;;;;49.17;33.75;;;;;;;;;;5042628;28;20198;-57
2022/03/18 08:59:15;;;;;;;48.03;32.67;;;;;;;;;;5043076;28;20222;-58
2022/03/18 09:01:42;;;;;;;45.40;32.55;;;;;;;;;;5043127;28;20197;-58
2022/03/18 09:04:09;;;;;;;49.30;34.30;;;;;;;;;;5042809;28;20197;-57
2022/03/18 09:06:35;;;;;;;46.20;32.83;;;;;;;;;;5042966;28;20450;-58
2022/03/18 09:09:03;;;;;;;54.38;33.95;;;;;;;;;;5042922;28;20202;-59
2022/03/18 09:11:29;;;;;;;46.75;33.28;;;;;;;;;;5042871;28;20197;-58
2022/03/18 09:13:56;;;;;;;43.83;32.40;;;;;;;;;;5042784;28;20220;-57
2022/03/18 09:16:23;;;;;;;44.70;32.47;;;;;;;;;;5042612;28;20198;-57
2022/03/18 09:18:49;;;;;;;40.70;31.38;;;;;;;;;;5042485;28;20217;-58
2022/03/18 09:21:16;;;;;;;45.33;32.65;;;;;;;;;;5042858;28;20213;-57
2022/03/18 09:23:42;;;;;;;44.28;32.28;;;;;;;;;;5042547;28;20198;-58
2022/03/18 09:26:08;;;;;;;49.08;33.13;;;;;;;;;;5042284;28;20247;-57
2022/03/18 09:28:35;;;;;;;43.67;31.52;;;;;;;;;;5042538;28;20240;-59
2022/03/18 09:31:01;;;;;;;44.67;30.80;;;;;;;;;;5042392;28;20225;-57
2022/03/18 09:33:29;;;;;;;46.92;31.05;;;;;;;;;;5042318;28;20202;-58
2022/03/18 09:35:55;;;;;;;44.17;31.05;;;;;;;;;;5042530;28;20198;-57
2022/03/18 09:38:21;;;;;;;43.50;31.23;;;;;;;;;;5042385;28;20198;-57
2022/03/18 09:40:47;;;;;;;43.90;30.90;;;;;;;;;;5047912;28;20232;-58
2022/03/18 09:43:14;;;;;;;42.60;29.38;;;;;;;;;;5053273;28;20213;-59
2022/03/18 09:45:41;;;;;;;39.30;28.90;;;;;;;;;;5059285;28;20239;-59
2022/03/18 09:48:09;;;;;;;40.38;28.73;;;;;;;;;;5068208;28;20200;-58
2022/03/18 09:50:36;;;;;;;41.65;28.02;;;;;;;;;;5063718;28;20204;-59
2022/03/18 09:53:03;;;;;;;38.45;28.05;;;;;;;;;;5064620;28;20247;-58
2022/03/18 09:55:30;;;;;;;37.33;26.65;;;;;;;;;;5061867;28;20211;-58
2022/03/18 09:57:57;;;;;;;36.10;26.77;;;;;;;;;;5060864;28;20201;-57
2022/03/18 10:00:23;;;;;;;39.25;27.50;;;;;;;;;;5061859;28;20220;-57
2022/03/18 10:03:06;;;;;;;36.53;26.45;;;;;;;;;;5061355;28;20215;-58
2022/03/18 10:05:33;;;;;;;35.78;25.70;;;;;;;;;;5058984;28;20217;-57
2022/03/18 10:08:00;;;;;;;36.03;24.23;;;;;;;;;;5061856;28;20258;-58
2022/03/18 10:10:28;;;;;;;37.10;26.42;;;;;;;;;;5062057;28;20570;-59
2022/03/18 10:12:56;;;;;;;36.28;25.67;;;;;;;;;;5061993;28;20200;-57
2022/03/18 10:15:24;;;;;;;36.00;24.95;;;;;;;;;;5061991;28;20197;-58
2022/03/18 10:17:51;;;;;;;34.38;25.10;;;;;;;;;;5061997;28;20372;-59
2022/03/18 10:20:28;;;;;;;34.10;25.45;;;;;;;;;;5061992;28;20220;-59
2022/03/18 10:22:55;;;;;;;33.15;25.25;;;;;;;;;;5061909;28;20209;-58
2022/03/18 10:25:36;;;;;;;34.92;25.35;;;;;;;;;;5061716;28;20205;-59
2022/03/18 10:28:03;;;;;;;37.25;26.40;;;;;;;;;;5061733;28;20508;-59
2022/03/18 10:30:31;;;;;;;35.85;25.60;;;;;;;;;;5061868;28;20194;-58
2022/03/18 10:32:57;;;;;;;36.53;24.40;;;;;;;;;;5061772;28;20211;-58
2022/03/18 10:38:14;;;;;;;36.03;25.27;;;;;;;;;;5061532;28;20196;-58
2022/03/18 10:40:42;;;;;;;35.42;24.80;;;;;;;;;;5062060;28;20465;-57
2022/03/18 10:43:08;;;;;;;32.67;23.98;;;;;;;;;;5061592;28;20200;-58
2022/03/18 10:45:34;;;;;;;37.50;24.98;;;;;;;;;;5061555;28;20205;-58
2022/03/18 10:48:10;;;;;;;33.25;24.35;;;;;;;;;;5061492;28;20435;-57
2022/03/18 10:50:37;;;;;;;36.00;24.67;;;;;;;;;;5061574;28;20255;-58
2022/03/18 10:53:05;;;;;;;34.17;24.55;;;;;;;;;;5061643;28;20203;-57
2022/03/18 10:55:34;;;;;;;36.83;24.63;;;;;;;;;;5061589;28;20231;-57
2022/03/18 10:58:03;;;;;;;33.22;24.50;;;;;;;;;;5061342;28;20236;-57
2022/03/18 11:00:30;;;;;;;30.80;23.60;;;;;;;;;;5061383;28;20385;-58
2022/03/18 11:02:58;;;;;;;34.60;24.60;;;;;;;;;;5060934;28;20212;-57
2022/03/18 11:05:25;;;;;;;36.55;25.65;;;;;;;;;;5061113;28;20224;-56
2022/03/18 11:07:51;;;;;;;32.58;24.50;;;;;;;;;;5060557;28;20197;-58
2022/03/18 11:13:05;;;;;;;32.75;24.25;;;;;;;;;;5064332;28;20223;-58
2022/03/18 11:15:32;;;;;;;32.67;25.20;;;;;;;;;;5064294;28;20205;-57
2022/03/18 11:18:00;;;;;;;33.70;24.30;;;;;;;;;;5064607;28;20547;-57
2022/03/18 11:20:27;;;;;;;35.33;25.08;;;;;;;;;;5064512;28;20539;-57
2022/03/18 11:22:54;;;;;;;32.67;24.30;;;;;;;;;;5064239;28;20203;-57
2022/03/18 11:25:21;;;;;;;33.42;24.55;;;;;;;;;;5064193;28;20219;-58
2022/03/18 11:27:48;;;;;;;36.95;24.45;;;;;;;;;;5063763;28;20235;-57
2022/03/18 11:30:19;;;;;;;35.58;24.75;;;;;;;;;;5064450;28;20202;-59
2022/03/18 11:32:45;;;;;;;34.10;25.73;;;;;;;;;;5064774;28;20209;-58
2022/03/18 11:35:11;;;;;;;34.05;24.05;;;;;;;;;;5064522;28;20204;-58
2022/03/18 11:37:38;;;;;;;30.98;23.83;;;;;;;;;;5063829;28;20423;-57
2022/03/18 11:40:27;;;;;;;30.83;23.23;;;;;;;;;;5063927;28;20271;-57
2022/03/18 11:42:54;;;;;;;34.03;24.25;;;;;;;;;;5063917;28;20201;-56
2022/03/18 11:45:33;;;;;;;31.52;24.00;;;;;;;;;;5063800;28;20197;-56
2022/03/18 11:47:59;;;;;;;34.60;25.00;;;;;;;;;;5063773;28;20224;-57
2022/03/18 11:50:42;;;;;;;30.25;23.33;;;;;;;;;;5063705;28;20201;-56
2022/03/18 11:53:08;;;;;;;30.35;22.92;;;;;;;;;;5063519;28;20197;-58
2022/03/18 11:55:35;;;;;;;39.72;25.40;;;;;;;;;;5063939;28;20197;-57
2022/03/18 11:58:01;;;;;;;33.05;23.52;;;;;;;;;;5063793;28;20197;-58
2022/03/18 12:00:44;;;;;;;37.10;23.42;;;;;;;;;;5064139;28;20271;-57
2022/03/18 12:03:21;;;;;;;33.22;24.50;;;;;;;;;;5064057;28;20204;-57
2022/03/18 12:05:54;;;;;;;33.10;24.30;;;;;;;;;;5064116;28;20584;-57
2022/03/18 12:08:54;;;;;;;31.98;23.90;;;;;;;;;;5064028;28;20196;-57
2022/03/18 12:11:27;;;;;;;31.48;23.08;;;;;;;;;;5063901;28;20197;-57
2022/03/18 12:13:53;;;;;;;34.97;24.63;;;;;;;;;;5063772;28;20793;-56
2022/03/18 12:16:21;;;;;;;33.53;24.63;;;;;;;;;;5063857;28;20224;-56
2022/03/18 12:18:47;;;;;;;34.63;24.33;;;;;;;;;;5063990;28;20428;-58
2022/03/18 12:21:14;;;;;;;34.47;24.55;;;;;;;;;;5063100;28;20221;-56
2022/03/18 12:23:40;;;;;;;30.00;23.35;;;;;;;;;;5063337;28;20197;-57
2022/03/18 12:26:07;;;;;;;30.98;24.83;;;;;;;;;;5063434;28;20436;-56
2022/03/18 12:28:44;;;;;;;31.88;24.65;;;;;;;;;;5063426;28;20197;-56
2022/03/18 12:31:14;;;;;;;31.83;24.65;;;;;;;;;;5063658;28;20193;-56
2022/03/18 12:33:41;;;;;;;30.52;24.45;;;;;;;;;;5063435;28;20496;-57
2022/03/18 12:36:09;;;;;;;34.45;23.10;;;;;;;;;;5063204;28;20276;-56
2022/03/18 12:38:35;;;;;;;32.65;24.33;;;;;;;;;;5063193;28;20197;-57
2022/03/18 12:41:01;;;;;;;34.65;24.98;;;;;;;;;;5063029;28;20232;-57
2022/03/18 12:43:31;;;;;;;30.38;23.55;;;;;;;;;;5063417;28;20205;-57
2022/03/18 12:45:57;;;;;;;30.58;23.10;;;;;;;;;;5063525;28;20493;-56
2022/03/18 12:48:24;;;;;;;31.38;24.25;;;;;;;;;;5063131;28;20606;-57
2022/03/18 12:50:52;;;;;;;29.20;23.55;;;;;;;;;;5063124;28;20247;-58
2022/03/18 12:53:20;;;;;;;33.30;23.30;;;;;;;;;;5062790;28;20197;-57
2022/03/18 12:55:48;;;;;;;30.30;23.83;;;;;;;;;;5063203;28;20201;-56
2022/03/18 12:58:14;;;;;;;32.45;23.85;;;;;;;;;;5063004;28;20204;-56
2022/03/18 13:00:41;;;;;;;30.17;23.45;;;;;;;;;;5062984;28;20219;-56
2022/03/18 13:03:08;;;;;;;29.90;23.40;;;;;;;;;;5063071;28;20240;-56
2022/03/18 13:05:35;;;;;;;29.05;21.90;;;;;;;;;;5063169;28;20217;-57
2022/03/18 13:08:07;;;;;;;133.23;26.75;;;;;;;;;;5062507;28;20504;-57
2022/03/18 13:10:34;;;;;;;34.05;20.92;;;;;;;;;;5062960;28;20193;-57
2022/03/18 13:13:07;;;;;;;27.67;20.95;;;;;;;;;;5062799;28;20201;-57
2022/03/18 13:15:34;;;;;;;28.40;21.52;;;;;;;;;;5062719;28;20235;-57
2022/03/18 13:18:08;;;;;;;27.05;22.05;;;;;;;;;;5062469;28;20220;-57
2022/03/18 13:20:35;;;;;;;30.05;21.17;;;;;;;;;;5062571;28;20227;-56
2022/03/18 13:23:02;;;;;;;28.13;21.73;;;;;;;;;;5062987;28;20518;-57
2022/03/18 13:25:29;;;;;;;27.40;20.65;;;;;;;;;;5062427;28;20255;-57
2022/03/18 13:27:56;;;;;;;30.00;21.13;;;;;;;;;;5062473;28;20436;-56
2022/03/18 13:33:10;;;;;;;25.38;19.95;;;;;;;;;;5061533;28;20212;-57
2022/03/18 13:35:42;;;;;;;24.92;19.58;;;;;;;;;;5062525;28;20505;-57
2022/03/18 13:38:10;;;;;;;30.45;20.55;;;;;;;;;;5062347;28;20266;-58
2022/03/18 13:40:38;;;;;;;45.38;21.55;;;;;;;;;;5062001;28;20216;-58
2022/03/18 13:43:07;;;;;;;25.50;19.73;;;;;;;;;;5062342;28;20299;-57
2022/03/18 13:45:34;;;;;;;26.40;21.13;;;;;;;;;;5062232;28;20490;-58
2022/03/18 13:48:00;;;;;;;26.38;21.20;;;;;;;;;;5062278;28;20205;-57
2022/03/18 13:50:41;;;;;;;27.70;21.13;;;;;;;;;;5062332;28;20426;-57
2022/03/18 13:53:18;;;;;;;25.15;20.35;;;;;;;;;;5062277;28;20201;-57
2022/03/18 13:55:45;;;;;;;26.02;19.40;;;;;;;;;;5062050;28;20423;-58
2022/03/18 13:58:12;;;;;;;28.48;20.00;;;;;;;;;;5061778;28;20200;-57
2022/03/18 14:00:39;;;;;;;28.05;20.80;;;;;;;;;;5062282;28;20217;-56
2022/03/18 14:03:07;;;;;;;26.98;19.95;;;;;;;;;;5062256;28;20197;-58
2022/03/18 14:05:34;;;;;;;27.80;21.02;;;;;;;;;;5062151;28;20540;-58
2022/03/18 14:08:01;;;;;;;27.63;20.23;;;;;;;;;;5061824;28;20197;-57
2022/03/18 14:10:37;;;;;;;24.55;19.05;;;;;;;;;;5062334;28;20256;-58
2022/03/18 14:13:06;;;;;;;24.23;19.25;;;;;;;;;;5062204;28;20243;-58
2022/03/18 14:15:33;;;;;;;30.42;20.48;;;;;;;;;;5061894;28;20217;-58
2022/03/18 14:18:00;;;;;;;25.38;19.65;;;;;;;;;;5061741;28;20558;-58
2022/03/18 14:20:28;;;;;;;24.65;18.58;;;;;;;;;;5061926;28;20283;-59
2022/03/18 14:22:55;;;;;;;25.25;19.58;;;;;;;;;;5061886;28;20197;-58
2022/03/18 14:25:22;;;;;;;25.00;19.90;;;;;;;;;;5061865;28;20205;-59
2022/03/18 14:27:51;;;;;;;25.98;19.13;;;;;;;;;;5061670;28;20251;-58
2022/03/18 14:30:21;;;;;;;25.27;18.50;;;;;;;;;;5061980;28;20197;-59
2022/03/18 14:32:48;;;;;;;25.23;18.33;;;;;;;;;;5061935;28;20266;-59
2022/03/18 14:35:14;;;;;;;25.77;19.42;;;;;;;;;;5061913;28;20201;-60
2022/03/18 14:37:41;;;;;;;25.23;18.98;;;;;;;;;;5061517;28;20200;-59
2022/03/18 14:40:08;;;;;;;25.13;17.63;;;;;;;;;;5061882;28;20201;-59
2022/03/18 14:42:34;;;;;;;24.52;17.42;;;;;;;;;;5062059;28;20243;-59